Time;durP1;ratioP1;P1;durP2;ratioP2;P2;SDS_P1;SDS_P2;PMS_P1;PMS_P2;Temp;Humidity;BMP_temperature;BMP_pressure;BME280_temperature;BME280_humidity;BME280_pressure;Samples;Min_cycle;Max_cycle;Signal;HPM_P1;HPM_P2
2021/09/28 00:00:18;;;;;;;10.85;5.08;;;;;;;5.28;100.00;100896.73;1756254;81;22232;-73
2021/09/28 00:02:46;;;;;;;6.85;4.37;;;;;;;5.24;100.00;100894.59;1759978;80;21041;-71
2021/09/28 00:05:12;;;;;;;9.58;5.00;;;;;;;5.22;100.00;100893.72;1768708;80;21541;-71
2021/09/28 00:07:40;;;;;;;8.08;4.58;;;;;;;5.23;100.00;100888.92;1778337;80;20993;-71
2021/09/28 00:10:07;;;;;;;8.98;4.22;;;;;;;5.23;100.00;100888.92;1778507;80;21650;-70
2021/09/28 00:12:34;;;;;;;9.03;4.37;;;;;;;5.23;100.00;100890.22;1778705;80;21483;-71
2021/09/28 00:15:00;;;;;;;8.88;5.58;;;;;;;5.22;100.00;100893.72;1778464;80;21021;-70
2021/09/28 00:17:28;;;;;;;8.63;5.20;;;;;;;5.23;100.00;100898.05;1778471;80;21044;-70
2021/09/28 00:19:55;;;;;;;11.00;4.92;;;;;;;5.25;100.00;100893.70;1778818;80;21714;-70
2021/09/28 00:22:21;;;;;;;7.60;4.60;;;;;;;5.23;100.00;100892.84;1778472;80;21047;-71
2021/09/28 00:24:48;;;;;;;9.83;4.70;;;;;;;5.19;100.00;100892.41;1778626;80;21112;-70
2021/09/28 00:27:16;;;;;;;7.62;4.78;;;;;;;5.18;100.00;100894.59;1778255;80;21048;-69
2021/09/28 00:29:42;;;;;;;8.00;3.65;;;;;;;5.15;100.00;100891.97;1768748;80;21533;-69
2021/09/28 00:32:09;;;;;;;8.38;4.90;;;;;;;5.14;100.00;100894.17;1747458;82;22003;-74
2021/09/28 00:34:38;;;;;;;10.78;5.20;;;;;;;5.10;100.00;100893.73;1747729;82;21621;-72
2021/09/28 00:37:04;;;;;;;9.83;5.30;;;;;;;5.04;100.00;100894.63;1747393;82;21790;-70
2021/09/28 00:39:30;;;;;;;7.42;5.00;;;;;;;4.99;100.00;100896.80;1747447;82;21065;-70
2021/09/28 00:41:57;;;;;;;8.15;5.17;;;;;;;4.91;100.00;100892.05;1747609;82;21092;-69
2021/09/28 00:44:34;;;;;;;9.40;5.47;;;;;;;4.86;100.00;100897.72;1747603;82;21496;-70
2021/09/28 00:47:01;;;;;;;13.03;5.80;;;;;;;4.84;100.00;100899.88;1745011;82;21072;-71
2021/09/28 00:49:27;;;;;;;6.53;5.12;;;;;;;4.87;100.00;100895.52;1747722;82;21146;-71
2021/09/28 00:51:54;;;;;;;7.25;4.50;;;;;;;4.88;100.00;100891.62;1747459;82;21059;-71
2021/09/28 00:54:20;;;;;;;13.20;5.25;;;;;;;4.89;100.00;100894.64;1747668;82;21099;-71
2021/09/28 00:56:47;;;;;;;8.23;5.37;;;;;;;4.90;100.00;100892.90;1747641;82;21584;-70
2021/09/28 00:59:13;;;;;;;13.45;5.58;;;;;;;4.89;100.00;100895.09;1747896;82;21733;-72
2021/09/28 01:01:40;;;;;;;8.08;5.12;;;;;;;4.89;100.00;100904.23;1747606;82;21132;-71
2021/09/28 01:04:07;;;;;;;17.02;5.92;;;;;;;4.88;100.00;100896.84;1752652;81;21877;-71
2021/09/28 01:06:34;;;;;;;9.20;5.83;;;;;;;4.84;100.00;100901.17;1755338;81;20993;-70
2021/09/28 01:09:01;;;;;;;8.80;5.67;;;;;;;4.82;100.00;100909.44;1756017;81;21017;-69
2021/09/28 01:11:27;;;;;;;9.03;5.40;;;;;;;4.79;100.00;100909.45;1755850;81;21143;-71
2021/09/28 01:13:55;;;;;;;5.28;3.52;;;;;;;4.73;100.00;100900.76;1753142;81;21028;-71
2021/09/28 01:16:24;;;;;;;7.80;4.62;;;;;;;4.68;100.00;100902.06;1753293;81;21601;-70
2021/09/28 01:18:50;;;;;;;10.98;4.92;;;;;;;4.68;100.00;100905.98;1753663;81;21531;-71
2021/09/28 01:21:17;;;;;;;11.60;5.37;;;;;;;4.65;100.00;100905.99;1753477;81;21010;-70
2021/09/28 01:23:45;;;;;;;7.12;4.30;;;;;;;4.64;100.00;100909.45;1758912;80;21029;-71
2021/09/28 01:26:16;;;;;;;12.58;5.55;;;;;;;4.59;100.00;100912.50;1782736;80;21122;-69
2021/09/28 01:28:45;;;;;;;13.78;5.70;;;;;;;4.57;100.00;100910.33;1782665;80;21524;-71
2021/09/28 01:31:13;;;;;;;9.38;5.33;;;;;;;4.53;100.00;100903.36;1755208;80;21051;-71
2021/09/28 01:33:40;;;;;;;7.97;5.45;;;;;;;4.50;100.00;100912.06;1775335;80;21049;-71
2021/09/28 01:36:08;;;;;;;7.45;5.30;;;;;;;4.45;100.00;100910.34;1782537;80;21663;-70
2021/09/28 01:38:34;;;;;;;10.45;5.70;;;;;;;4.41;100.00;100912.92;1782851;80;21100;-69
2021/09/28 01:41:01;;;;;;;10.13;6.05;;;;;;;4.38;100.00;100918.14;1782289;80;21037;-71
2021/09/28 01:43:27;;;;;;;10.05;4.85;;;;;;;4.35;100.00;100918.16;1782357;80;21124;-71
2021/09/28 01:45:59;;;;;;;10.25;6.03;;;;;;;4.32;100.00;100920.73;1782694;80;21034;-74
2021/09/28 01:48:40;;;;;;;7.37;5.62;;;;;;;4.31;100.00;100923.36;1782726;80;21500;-73
2021/09/28 01:51:07;;;;;;;11.80;5.70;;;;;;;4.30;100.00;100924.22;1779337;80;21537;-71
2021/09/28 01:53:35;;;;;;;12.43;6.40;;;;;;;4.26;100.00;100920.75;1782546;80;21116;-71
2021/09/28 01:56:02;;;;;;;30.37;9.93;;;;;;;4.24;100.00;100919.88;1782349;80;21030;-72
2021/09/28 01:58:29;;;;;;;44.23;14.95;;;;;;;4.23;100.00;100923.77;1782495;80;21049;-71
2021/09/28 02:00:56;;;;;;;70.62;21.77;;;;;;;4.20;100.00;100916.81;1782543;80;21007;-71
2021/09/28 02:03:23;;;;;;;78.25;21.70;;;;;;;4.17;100.00;100915.52;1782448;80;21141;-70
2021/09/28 02:05:52;;;;;;;94.30;25.95;;;;;;;4.17;100.00;100911.61;1782484;80;21532;-71
2021/09/28 02:08:18;;;;;;;105.58;30.50;;;;;;;4.15;100.00;100915.50;1782840;80;21065;-70
2021/09/28 02:10:45;;;;;;;117.40;31.25;;;;;;;4.17;100.00;100918.13;1782568;80;21119;-70
2021/09/28 02:13:13;;;;;;;83.22;25.10;;;;;;;4.17;100.00;100919.43;1782522;80;21018;-69
2021/09/28 02:15:40;;;;;;;55.75;17.82;;;;;;;4.18;100.00;100915.94;1782986;80;21061;-72
2021/09/28 02:18:08;;;;;;;24.43;9.58;;;;;;;4.20;100.00;100912.91;1782664;80;21077;-71
2021/09/28 02:20:34;;;;;;;16.70;7.12;;;;;;;4.21;100.00;100914.66;1782992;80;21025;-70
2021/09/28 02:23:01;;;;;;;12.20;6.17;;;;;;;4.23;100.00;100916.81;1782391;80;21053;-71
2021/09/28 02:25:27;;;;;;;12.00;6.00;;;;;;;4.25;100.00;100912.91;1782685;80;21065;-72
2021/09/28 02:27:54;;;;;;;11.90;5.90;;;;;;;4.30;100.00;100919.89;1782519;80;21566;-70
2021/09/28 02:30:20;;;;;;;8.15;5.40;;;;;;;4.32;100.00;100925.95;1783665;80;21072;-71
2021/09/28 02:32:47;;;;;;;8.93;5.53;;;;;;;4.33;100.00;100927.70;1784322;80;21052;-72
2021/09/28 02:35:13;;;;;;;9.95;5.55;;;;;;;4.33;100.00;100920.33;1784463;80;21072;-72
2021/09/28 02:37:41;;;;;;;9.88;5.17;;;;;;;4.33;100.00;100925.10;1784502;80;21080;-70
2021/09/28 02:40:11;;;;;;;8.40;4.97;;;;;;;4.33;100.00;100927.70;1784458;80;21559;-74
2021/09/28 02:42:39;;;;;;;12.95;4.15;;;;;;;4.32;100.00;100919.88;1784042;80;20981;-71
2021/09/28 02:45:07;;;;;;;8.40;3.98;;;;;;;4.30;100.00;100929.42;1784388;80;21602;-72
2021/09/28 02:47:35;;;;;;;8.93;4.00;;;;;;;4.29;100.00;100924.66;1784071;80;21025;-71
2021/09/28 02:50:03;;;;;;;8.55;3.67;;;;;;;4.30;100.00;100924.22;1784250;80;20977;-70
2021/09/28 02:52:31;;;;;;;6.17;3.27;;;;;;;4.30;100.00;100922.50;1784142;80;21939;-70
2021/09/28 02:54:58;;;;;;;6.90;3.60;;;;;;;4.30;100.00;100919.89;1784149;80;21026;-72
2021/09/28 02:57:25;;;;;;;13.40;5.03;;;;;;;4.30;100.00;100933.34;1784033;80;21068;-71
2021/09/28 02:59:53;;;;;;;9.50;5.20;;;;;;;4.27;100.00;100935.51;1784268;80;21055;-71
2021/09/28 03:02:19;;;;;;;7.28;4.87;;;;;;;4.24;100.00;100928.14;1783740;80;21028;-71
2021/09/28 03:04:45;;;;;;;10.53;4.90;;;;;;;4.20;100.00;100931.16;1779275;80;22081;-71
2021/09/28 03:07:12;;;;;;;7.03;4.92;;;;;;;4.17;100.00;100930.72;1778188;80;21009;-71
2021/09/28 03:09:39;;;;;;;15.00;5.30;;;;;;;4.15;100.00;100934.20;1778345;80;21065;-69
2021/09/28 03:12:09;;;;;;;7.50;5.03;;;;;;;4.13;100.00;100932.88;1778108;80;21040;-71
2021/09/28 03:14:36;;;;;;;8.95;5.10;;;;;;;4.12;100.00;100931.16;1778380;80;21025;-72
2021/09/28 03:17:03;;;;;;;9.90;5.40;;;;;;;4.12;100.00;100931.16;1778860;80;21048;-72
2021/09/28 03:19:32;;;;;;;11.40;5.62;;;;;;;4.13;100.00;100932.02;1778324;80;21076;-73
2021/09/28 03:21:58;;;;;;;8.83;5.42;;;;;;;4.15;100.00;100938.11;1778616;80;21523;-72
2021/09/28 03:24:24;;;;;;;11.55;5.58;;;;;;;4.16;100.00;100930.70;1778475;80;21065;-72
2021/09/28 03:26:51;;;;;;;7.55;4.08;;;;;;;4.19;100.00;100926.83;1769381;80;21060;-71
2021/09/28 03:29:17;;;;;;;6.50;3.98;;;;;;;4.22;100.00;100937.25;1774160;80;21299;-70
2021/09/28 03:31:44;;;;;;;10.03;4.12;;;;;;;4.25;100.00;100936.38;1706979;83;21174;-69
2021/09/28 03:34:10;;;;;;;11.30;5.17;;;;;;;4.27;100.00;100938.12;1709378;83;21071;-68
2021/09/28 03:36:37;;;;;;;7.20;3.77;;;;;;;4.29;100.00;100938.99;1766541;80;21048;-69
2021/09/28 03:39:03;;;;;;;8.30;3.17;;;;;;;4.30;100.00;100935.54;1747482;82;21583;-70
2021/09/28 03:41:30;;;;;;;7.83;4.40;;;;;;;4.29;100.00;100944.21;1747729;82;21089;-69
2021/09/28 03:43:56;;;;;;;8.05;4.12;;;;;;;4.26;100.00;100944.66;1747711;82;21084;-71
2021/09/28 03:46:23;;;;;;;8.08;4.22;;;;;;;4.23;100.00;100952.02;1747896;82;21100;-69
2021/09/28 03:48:51;;;;;;;10.35;5.70;;;;;;;4.23;100.00;100957.22;1747222;82;21543;-69
2021/09/28 03:51:18;;;;;;;12.85;5.22;;;;;;;4.20;100.00;100956.79;1746935;82;21076;-70
2021/09/28 03:53:44;;;;;;;12.15;5.42;;;;;;;4.18;100.00;100952.44;1747022;82;20998;-71
2021/09/28 03:56:10;;;;;;;9.35;6.00;;;;;;;4.16;100.00;100949.85;1747310;82;21028;-70
2021/09/28 03:58:37;;;;;;;10.38;5.83;;;;;;;4.15;100.00;100953.75;1747147;82;21032;-70
2021/09/28 04:01:05;;;;;;;9.13;6.10;;;;;;;4.16;100.00;100958.08;1746794;82;21119;-70
2021/09/28 04:03:33;;;;;;;12.98;6.00;;;;;;;4.16;100.00;100958.98;1747643;81;21468;-70
2021/09/28 04:05:59;;;;;;;12.78;5.62;;;;;;;4.15;100.00;100961.57;1753373;81;21103;-71
2021/09/28 04:08:26;;;;;;;16.12;5.75;;;;;;;4.15;100.00;100962.44;1753154;81;21020;-70
2021/09/28 04:10:54;;;;;;;11.48;5.45;;;;;;;4.17;100.00;100966.36;1753161;81;21088;-71
2021/09/28 04:13:20;;;;;;;13.75;5.72;;;;;;;4.19;100.00;100964.62;1753467;81;21611;-72
2021/09/28 04:15:47;;;;;;;9.63;4.67;;;;;;;4.20;100.00;100971.56;1756590;80;21036;-73
2021/09/28 04:18:14;;;;;;;13.45;5.70;;;;;;;4.22;100.00;100968.53;1760586;80;21249;-73
2021/09/28 04:20:43;;;;;;;16.02;5.20;;;;;;;4.24;100.00;100969.41;1753058;80;21037;-74
2021/09/28 04:23:11;;;;;;;15.58;4.28;;;;;;;4.29;100.00;100971.59;1784318;80;21040;-73
2021/09/28 04:25:38;;;;;;;8.38;4.03;;;;;;;4.29;100.00;100969.42;1784212;80;20985;-72
2021/09/28 04:28:04;;;;;;;11.08;4.87;;;;;;;4.34;100.00;100967.25;1757518;80;21499;-73
2021/09/28 04:30:31;;;;;;;9.00;4.17;;;;;;;4.42;100.00;100965.98;1773584;80;21518;-73
2021/09/28 04:32:58;;;;;;;12.18;3.85;;;;;;;4.52;100.00;100972.07;1784312;80;21032;-71
2021/09/28 04:35:24;;;;;;;10.32;5.30;;;;;;;4.61;100.00;100970.33;1782148;80;21504;-72
2021/09/28 04:37:50;;;;;;;10.43;5.65;;;;;;;4.72;100.00;100971.66;1773172;80;21033;-74
2021/09/28 04:40:17;;;;;;;17.20;5.80;;;;;;;4.83;100.00;100967.72;1784130;80;21084;-74
2021/09/28 04:42:44;;;;;;;12.60;6.17;;;;;;;4.92;100.00;100972.08;1784353;80;21488;-76
2021/09/28 04:45:10;;;;;;;15.38;6.87;;;;;;;5.01;100.00;100973.38;1784139;80;21083;-74
2021/09/28 04:47:38;;;;;;;15.13;7.20;;;;;;;5.12;100.00;100978.16;1784451;80;21020;-73
2021/09/28 04:50:06;;;;;;;12.82;6.78;;;;;;;5.22;100.00;100984.23;1784384;80;21024;-73
2021/09/28 04:52:33;;;;;;;16.80;6.87;;;;;;;5.33;100.00;100984.22;1784277;80;21537;-74
2021/09/28 04:55:01;;;;;;;17.10;7.17;;;;;;;5.44;100.00;100976.80;1775354;80;21180;-73
2021/09/28 04:57:27;;;;;;;16.05;8.65;;;;;;;5.55;100.00;100975.47;1753330;81;21040;-73
2021/09/28 04:59:56;;;;;;;23.15;9.93;;;;;;;5.67;100.00;100985.01;1753521;81;21080;-73
2021/09/28 05:02:23;;;;;;;13.75;6.40;;;;;;;5.78;100.00;100985.84;1753951;81;21040;-73
2021/09/28 05:04:49;;;;;;;16.87;8.70;;;;;;;5.89;100.00;100989.73;1760252;80;21088;-71
2021/09/28 05:07:16;;;;;;;15.58;7.65;;;;;;;6.00;100.00;100984.02;1747643;82;21060;-70
2021/09/28 05:09:43;;;;;;;18.75;7.00;;;;;;;6.09;100.00;100989.22;1711974;83;21217;-73
2021/09/28 05:12:10;;;;;;;19.50;8.30;;;;;;;6.20;100.00;100988.30;1687318;84;21087;-74
2021/09/28 05:14:37;;;;;;;18.90;7.75;;;;;;;6.30;100.00;100991.28;1697638;83;21062;-71
2021/09/28 05:17:05;;;;;;;19.15;7.62;;;;;;;6.40;100.00;100990.81;1686983;85;21054;-73
2021/09/28 05:19:31;;;;;;;15.75;7.00;;;;;;;6.47;100.00;100992.06;1749946;82;21129;-74
2021/09/28 05:21:57;;;;;;;13.03;7.70;;;;;;;6.54;100.00;100996.83;1749933;82;21064;-74
2021/09/28 05:24:24;;;;;;;16.80;7.45;;;;;;;6.62;100.00;100999.38;1749500;80;21032;-72
2021/09/28 05:26:50;;;;;;;16.48;7.65;;;;;;;6.68;100.00;100999.34;1748144;82;21189;-72
2021/09/28 05:29:17;;;;;;;13.32;8.10;;;;;;;6.77;100.00;101003.66;1751360;80;20993;-73
2021/09/28 05:31:43;;;;;;;13.13;7.35;;;;;;;6.85;100.00;100997.45;1778687;80;21113;-74
2021/09/28 05:34:11;;;;;;;15.38;7.40;;;;;;;6.90;100.00;101006.17;1774568;80;21064;-73
2021/09/28 05:36:37;;;;;;;15.28;7.97;;;;;;;6.99;100.00;100999.10;1754732;80;21081;-72
2021/09/28 05:39:03;;;;;;;16.73;7.78;;;;;;;7.05;100.00;100999.92;1744842;80;21094;-71
2021/09/28 05:41:30;;;;;;;11.93;6.92;;;;;;;7.17;100.00;101009.42;1757416;80;21584;-72
2021/09/28 05:43:56;;;;;;;23.18;7.50;;;;;;;7.25;100.00;101009.38;1777991;80;21671;-72
2021/09/28 05:46:23;;;;;;;12.10;6.80;;;;;;;7.34;100.00;101003.59;1748873;80;21021;-73
2021/09/28 05:48:51;;;;;;;15.45;6.65;;;;;;;7.48;100.00;100999.52;1748383;80;21632;-72
2021/09/28 05:51:19;;;;;;;15.25;6.45;;;;;;;7.63;100.00;100995.85;1748736;80;21037;-72
2021/09/28 05:53:46;;;;;;;10.05;6.72;;;;;;;7.77;100.00;101000.48;1747522;80;21641;-72
2021/09/28 05:56:13;;;;;;;10.13;6.25;;;;;;;7.94;100.00;100999.45;1754242;80;21116;-71
2021/09/28 05:58:39;;;;;;;12.43;5.85;;;;;;;8.11;100.00;100996.16;1757363;79;21511;-70
2021/09/28 06:01:06;;;;;;;13.25;7.58;;;;;;;8.29;100.00;100995.50;1759700;80;21036;-70
2021/09/28 06:03:32;;;;;;;15.43;7.67;;;;;;;8.42;100.00;100995.79;1749196;80;21041;-70
2021/09/28 06:06:00;;;;;;;10.72;6.55;;;;;;;8.54;100.00;100999.98;1759029;80;21071;-72
2021/09/28 06:08:26;;;;;;;14.78;6.28;;;;;;;8.63;100.00;101002.48;1747813;80;21808;-72
2021/09/28 06:10:53;;;;;;;13.43;6.15;;;;;;;8.77;100.00;101007.52;1759971;80;21052;-71
2021/09/28 06:13:19;;;;;;;13.00;6.12;;;;;;;8.93;100.00;101003.75;1760080;80;21076;-72
2021/09/28 06:15:46;;;;;;;13.43;7.37;;;;;;;9.16;100.00;101007.77;1753543;80;22344;-71
2021/09/28 06:18:13;;;;;;;81.05;32.17;;;;;;;9.42;100.00;101010.78;1753548;80;21025;-71
2021/09/28 06:20:39;;;;;;;76.40;33.55;;;;;;;9.73;100.00;101014.59;1755863;80;21235;-71
2021/09/28 06:23:05;;;;;;;54.33;17.90;;;;;;;10.20;100.00;101013.63;1753285;80;21086;-72
2021/09/28 06:25:32;;;;;;;17.52;8.25;;;;;;;10.86;100.00;101009.54;1753229;80;21534;-72
2021/09/28 06:28:00;;;;;;;17.60;8.08;;;;;;;11.40;100.00;101010.81;1774493;80;20990;-70
2021/09/28 06:30:26;;;;;;;14.73;7.58;;;;;;;11.87;95.11;101008.70;1755360;80;21020;-72
2021/09/28 06:32:53;;;;;;;14.00;6.72;;;;;;;12.11;92.69;101004.93;1762796;80;21508;-70
2021/09/28 06:35:20;;;;;;;12.20;6.78;;;;;;;12.37;92.17;101011.59;1768183;80;21571;-73
2021/09/28 06:37:46;;;;;;;20.43;7.33;;;;;;;12.61;90.85;101019.70;1783581;80;21049;-72
2021/09/28 06:40:14;;;;;;;19.52;7.33;;;;;;;12.77;89.22;101017.45;1762201;80;21020;-72
2021/09/28 06:42:40;;;;;;;25.72;7.00;;;;;;;12.79;86.22;101020.44;1757724;80;21080;-71
2021/09/28 06:45:08;;;;;;;16.80;7.95;;;;;;;12.75;86.82;101019.27;1754594;80;22081;-72
2021/09/28 06:47:36;;;;;;;11.28;7.15;;;;;;;12.70;85.17;101026.45;1775630;80;21043;-71
2021/09/28 06:50:03;;;;;;;15.18;7.10;;;;;;;12.54;83.10;101028.27;1773489;80;21503;-72
2021/09/28 06:52:30;;;;;;;18.30;7.05;;;;;;;12.35;84.53;101027.09;1757952;80;21068;-72
2021/09/28 06:54:57;;;;;;;15.70;6.83;;;;;;;12.21;82.66;101028.82;1758352;80;21087;-72
2021/09/28 06:57:24;;;;;;;10.80;5.83;;;;;;;12.01;83.95;101036.02;1752855;81;21130;-72
2021/09/28 06:59:52;;;;;;;22.02;6.78;;;;;;;11.91;84.43;101035.39;1757515;80;21033;-71
2021/09/28 07:02:18;;;;;;;14.95;7.37;;;;;;;11.84;84.34;101039.54;1757308;80;21024;-71
2021/09/28 07:04:45;;;;;;;14.35;6.90;;;;;;;11.74;84.43;101041.57;1756918;80;21048;-72
2021/09/28 07:07:13;;;;;;;22.58;7.67;;;;;;;11.69;87.23;101043.48;1752978;81;21020;-70
2021/09/28 07:09:41;;;;;;;18.45;7.12;;;;;;;11.78;87.29;101040.59;1757000;80;21114;-72
2021/09/28 07:12:09;;;;;;;19.55;7.08;;;;;;;11.83;87.22;101050.56;1763293;80;21033;-72
2021/09/28 07:14:36;;;;;;;15.18;7.15;;;;;;;11.81;85.59;101048.41;1753747;80;21092;-73
2021/09/28 07:17:04;;;;;;;19.57;7.05;;;;;;;11.71;84.60;101054.83;1771795;80;21107;-73
2021/09/28 07:19:30;;;;;;;20.80;7.00;;;;;;;11.62;85.78;101059.03;1768930;80;21033;-72
2021/09/28 07:21:57;;;;;;;22.13;7.62;;;;;;;11.63;85.18;101059.46;1764227;80;21152;-72
2021/09/28 07:24:24;;;;;;;27.07;7.90;;;;;;;11.65;85.29;101062.93;1767070;80;21052;-72
2021/09/28 07:26:51;;;;;;;18.70;7.90;;;;;;;11.76;84.98;101066.16;1769967;79;21053;-72
2021/09/28 07:29:18;;;;;;;23.52;7.75;;;;;;;11.84;83.30;101060.66;1767127;79;20984;-72
2021/09/28 07:31:45;;;;;;;15.53;7.20;;;;;;;11.93;83.06;101059.11;1761026;80;21506;-72
2021/09/28 07:34:13;;;;;;;16.82;7.55;;;;;;;12.08;82.83;101063.11;1767607;80;21159;-72
2021/09/28 07:36:39;;;;;;;17.27;7.67;;;;;;;12.25;82.06;101064.80;1764359;80;21527;-73
2021/09/28 07:39:06;;;;;;;24.85;7.58;;;;;;;12.43;81.00;101062.54;1755277;80;21055;-73
2021/09/28 07:41:34;;;;;;;17.42;7.47;;;;;;;12.61;80.52;101064.63;1753882;80;21104;-73
2021/09/28 07:44:01;;;;;;;21.90;7.28;;;;;;;12.95;78.61;101064.88;1766059;80;21632;-73
2021/09/28 07:46:28;;;;;;;20.32;6.70;;;;;;;13.26;76.41;101058.61;1759260;80;21516;-73
2021/09/28 07:48:55;;;;;;;21.35;8.25;;;;;;;13.56;77.44;101056.27;1755028;80;21645;-73
2021/09/28 07:51:22;;;;;;;22.75;8.50;;;;;;;13.89;74.64;101057.30;1751564;79;29682;-72
2021/09/28 07:53:49;;;;;;;17.52;6.62;;;;;;;14.24;73.86;101061.77;1708236;82;21497;-72
2021/09/28 07:56:17;;;;;;;20.65;6.80;;;;;;;14.67;73.06;101057.04;1723148;82;21595;-74
2021/09/28 07:58:45;;;;;;;20.57;6.72;;;;;;;15.25;70.31;101060.48;1719052;81;21203;-73
2021/09/28 08:01:12;;;;;;;19.62;6.83;;;;;;;15.76;68.78;101058.79;1721782;83;21567;-72
2021/09/28 08:03:38;;;;;;;28.40;7.42;;;;;;;16.24;64.50;101052.21;1721492;83;21638;-72
2021/09/28 08:06:07;;;;;;;24.37;7.17;;;;;;;16.48;63.38;101048.42;1718690;83;21654;-72
2021/09/28 08:08:33;;;;;;;17.52;6.87;;;;;;;16.81;62.48;101051.77;1717955;83;21052;-74
2021/09/28 08:11:02;;;;;;;14.43;5.97;;;;;;;17.25;60.49;101051.84;1714903;83;21198;-72
2021/09/28 08:13:28;;;;;;;24.47;6.95;;;;;;;17.45;59.41;101052.17;1688859;83;21595;-72
2021/09/28 08:15:55;;;;;;;27.25;7.30;;;;;;;17.55;58.98;101052.08;1684935;85;21547;-72
2021/09/28 08:18:23;;;;;;;18.75;7.15;;;;;;;17.50;58.32;101050.98;1684855;85;21157;-73
2021/09/28 08:20:50;;;;;;;21.93;7.08;;;;;;;17.25;58.77;101048.70;1685132;85;21062;-72
2021/09/28 08:23:17;;;;;;;22.42;6.45;;;;;;;17.40;58.69;101051.94;1685021;85;21954;-72
2021/09/28 08:25:59;;;;;;;17.40;6.10;;;;;;;18.02;57.86;101050.11;1686009;85;21061;-73
2021/09/28 08:31:03;;;;;;;19.27;6.42;;;;;;;19.38;54.38;101040.23;1686223;85;21052;-73
2021/09/28 08:33:30;;;;;;;15.15;7.17;;;;;;;20.09;50.70;101038.17;1685876;85;21591;-73
2021/09/28 08:35:59;;;;;;;24.70;8.20;;;;;;;20.24;49.97;101041.68;1686123;85;21037;-73
2021/09/28 08:38:28;;;;;;;22.87;8.23;;;;;;;20.41;49.50;101040.63;1686022;85;21053;-73
2021/09/28 08:40:56;;;;;;;23.02;6.50;;;;;;;20.72;47.80;101043.55;1686168;85;21528;-72
2021/09/28 08:43:24;;;;;;;18.07;5.45;;;;;;;20.84;46.47;101047.72;1686279;85;21587;-73
2021/09/28 08:45:50;;;;;;;19.48;5.55;;;;;;;20.82;47.18;101041.60;1686194;85;21519;-72
2021/09/28 08:48:22;;;;;;;19.10;5.97;;;;;;;20.89;46.35;101048.27;1686396;85;21093;-71
2021/09/28 08:50:51;;;;;;;15.05;5.15;;;;;;;20.85;46.13;101038.75;1701564;83;21112;-72
2021/09/28 08:53:20;;;;;;;25.23;5.50;;;;;;;20.73;46.43;101041.27;1704807;83;21136;-72
2021/09/28 08:55:46;;;;;;;19.77;5.05;;;;;;;20.56;45.74;101037.47;1715760;83;21091;-71
2021/09/28 08:58:21;;;;;;;18.50;4.67;;;;;;;20.17;45.26;101047.52;1720198;82;21176;-71
2021/09/28 09:00:52;;;;;;;20.37;5.08;;;;;;;19.37;46.65;101049.22;1712410;82;21944;-72
2021/09/28 09:03:31;;;;;;;20.25;5.75;;;;;;;18.45;48.37;101063.30;1710075;82;21080;-72
2021/09/28 09:06:03;;;;;;;16.15;5.35;;;;;;;17.78;50.66;101065.09;1702372;82;21143;-73
2021/09/28 09:08:34;;;;;;;18.17;5.83;;;;;;;17.34;52.34;101063.36;1722172;82;21127;-73
2021/09/28 09:11:12;;;;;;;20.50;6.30;;;;;;;17.02;53.19;101058.30;1720344;83;21072;-72
2021/09/28 09:13:43;;;;;;;23.87;6.90;;;;;;;16.53;54.64;101055.70;1719758;83;21625;-72
2021/09/28 09:16:14;;;;;;;25.85;6.40;;;;;;;16.17;55.90;101066.71;1706092;83;21075;-72
2021/09/28 09:19:49;;;;;;;17.62;6.05;;;;;;;15.84;57.92;101064.17;1807768;78;22560;-71
2021/09/28 09:22:22;;;;;;;21.10;5.47;;;;;;;15.58;59.23;101068.41;1765192;78;20984;-73
2021/09/28 09:24:51;;;;;;;18.70;6.05;;;;;;;15.39;60.53;101073.61;1774348;80;22178;-70
2021/09/28 09:27:30;;;;;;;21.70;6.35;;;;;;;15.17;60.86;101075.84;1773447;80;21026;-72
2021/09/28 09:30:18;;;;;;;23.77;6.20;;;;;;;14.94;61.87;101073.27;1766451;80;21512;-73
2021/09/28 09:32:56;;;;;;;26.60;7.30;;;;;;;14.82;62.72;101075.48;1775471;80;21078;-73
2021/09/28 09:35:32;;;;;;;25.82;7.28;;;;;;;14.68;64.02;101079.14;1773231;80;21018;-72
2021/09/28 09:38:19;;;;;;;30.80;6.90;;;;;;;14.45;64.97;101078.67;1783396;80;21155;-73
2021/09/28 09:40:47;;;;;;;20.45;5.28;;;;;;;14.19;65.93;101080.95;1768842;80;20950;-73
2021/09/28 09:43:21;;;;;;;18.90;6.60;;;;;;;14.07;67.18;101082.27;1776074;80;21617;-72
2021/09/28 09:45:48;;;;;;;35.45;8.00;;;;;;;14.08;67.11;101087.09;1775725;80;21056;-71
2021/09/28 09:48:27;;;;;;;42.60;9.15;;;;;;;14.02;67.67;101083.75;1775095;80;21074;-71
2021/09/28 09:51:05;;;;;;;24.47;6.37;;;;;;;13.94;68.17;101080.53;1774224;80;21090;-70
2021/09/28 09:53:35;;;;;;;27.80;6.53;;;;;;;13.93;67.95;101080.11;1778361;80;21077;-71
2021/09/28 09:56:03;;;;;;;32.53;6.87;;;;;;;13.84;67.70;101079.98;1772117;78;21111;-71
2021/09/28 09:58:30;;;;;;;27.42;6.20;;;;;;;13.76;67.67;101087.34;1765017;80;21042;-70
2021/09/28 10:00:59;;;;;;;35.08;6.97;;;;;;;13.76;67.06;101089.12;1767144;80;20998;-72
2021/09/28 10:03:27;;;;;;;31.48;5.95;;;;;;;13.82;66.18;101090.22;1769113;80;22178;-72
2021/09/28 10:05:53;;;;;;;30.60;5.83;;;;;;;13.89;66.29;101090.87;1774848;80;21103;-71
2021/09/28 10:08:21;;;;;;;22.60;5.95;;;;;;;13.99;65.70;101088.31;1768521;80;21645;-71
2021/09/28 10:11:00;;;;;;;29.82;5.42;;;;;;;14.17;65.67;101088.08;1774438;80;21124;-72
2021/09/28 10:13:55;;;;;;;31.00;6.15;;;;;;;14.32;64.33;101091.50;1768083;80;21065;-72
2021/09/28 10:16:35;;;;;;;22.73;6.22;;;;;;;14.34;64.46;101094.96;1774406;80;21070;-72
2021/09/28 10:19:03;;;;;;;27.02;5.90;;;;;;;14.24;64.24;101097.53;1773174;80;21348;-72
2021/09/28 10:21:46;;;;;;;25.90;6.28;;;;;;;14.10;65.24;101102.47;1752443;81;21035;-72
2021/09/28 10:24:26;;;;;;;22.60;6.60;;;;;;;14.02;65.31;101099.64;1690984;84;21491;-73
2021/09/28 10:27:06;;;;;;;28.30;6.33;;;;;;;13.96;65.08;101106.47;1706472;83;21642;-73
2021/09/28 10:29:49;;;;;;;32.28;6.37;;;;;;;13.83;65.44;101106.53;1703535;83;22176;-73
2021/09/28 10:32:36;;;;;;;18.42;6.30;;;;;;;13.77;66.14;101106.73;1722215;83;21569;-73
2021/09/28 10:35:14;;;;;;;24.85;6.22;;;;;;;13.79;66.67;101103.57;1712644;83;21679;-70
2021/09/28 10:37:52;;;;;;;29.55;6.22;;;;;;;13.85;64.36;101101.58;1707910;83;21112;-72
2021/09/28 10:40:27;;;;;;;33.88;7.42;;;;;;;13.79;64.15;101102.25;1694711;83;21573;-71
2021/09/28 10:42:59;;;;;;;35.40;7.25;;;;;;;13.72;64.44;101094.12;1676437;83;21130;-72
2021/09/28 10:45:38;;;;;;;22.67;6.55;;;;;;;13.76;65.51;101105.02;1722058;83;21043;-71
2021/09/28 10:48:11;;;;;;;27.55;6.12;;;;;;;13.87;64.98;101102.83;1721536;83;21033;-72
2021/09/28 10:50:41;;;;;;;31.27;5.90;;;;;;;13.95;64.97;101103.44;1695452;83;21055;-72
2021/09/28 10:53:23;;;;;;;30.30;6.35;;;;;;;13.99;65.00;101105.06;1712920;83;21037;-71
2021/09/28 10:56:09;;;;;;;19.98;5.92;;;;;;;14.08;64.71;101107.84;1698566;84;21521;-71
2021/09/28 10:58:58;;;;;;;29.23;6.22;;;;;;;14.09;64.74;101106.91;1700818;83;22145;-71
2021/09/28 11:01:30;;;;;;;23.38;5.45;;;;;;;14.10;65.80;101107.77;1664800;84;21023;-71
2021/09/28 11:04:03;;;;;;;26.90;7.17;;;;;;;14.18;65.80;101103.08;1699243;83;20958;-72
2021/09/28 11:06:54;;;;;;;27.27;6.50;;;;;;;14.27;65.02;101109.36;1702427;83;21090;-73
2021/09/28 11:09:23;;;;;;;27.22;6.67;;;;;;;14.28;64.34;101108.42;1697429;83;21102;-73
2021/09/28 11:11:55;;;;;;;32.45;7.05;;;;;;;14.24;64.06;101112.09;1717048;83;21074;-71
2021/09/28 11:14:23;;;;;;;34.98;7.97;;;;;;;14.20;64.24;101118.45;1687986;84;21551;-73
2021/09/28 11:16:58;;;;;;;25.25;6.08;;;;;;;14.09;64.39;101121.48;1705839;83;21026;-71
2021/09/28 11:19:35;;;;;;;27.52;6.28;;;;;;;13.95;64.15;101116.67;1680385;84;21037;-72
2021/09/28 11:22:03;;;;;;;27.60;6.78;;;;;;;13.84;65.35;101116.19;1723666;82;21067;-71
2021/09/28 11:24:31;;;;;;;23.27;6.80;;;;;;;13.83;65.37;101114.47;1701134;82;21031;-72
2021/09/28 11:27:09;;;;;;;28.00;7.37;;;;;;;13.80;65.76;101110.15;1749846;82;21564;-73
2021/09/28 11:29:35;;;;;;;18.67;6.50;;;;;;;13.82;65.18;101113.58;1737808;82;21679;-72